sensor_id;sensor_type;location;lat;lon;timestamp;pressure;altitude;pressure_sealevel;temperature;humidity
85560;BME280;76003;49.038;16.594;2024-03-08T00:00:53;99925.25;;;2.54;74.80
85560;BME280;76003;49.038;16.594;2024-03-08T00:03:39;99932.28;;;2.55;74.97
85560;BME280;76003;49.038;16.594;2024-03-08T00:06:20;99956.06;;;2.64;74.56
85560;BME280;76003;49.038;16.594;2024-03-08T00:08:47;99947.38;;;2.62;74.83
85560;BME280;76003;49.038;16.594;2024-03-08T00:11:34;99928.63;;;2.43;74.84
85560;BME280;76003;49.038;16.594;2024-03-08T00:14:15;99953.63;;;2.56;74.63
85560;BME280;76003;49.038;16.594;2024-03-08T00:16:55;99939.16;;;2.51;75.28
85560;BME280;76003;49.038;16.594;2024-03-08T00:19:36;99885.97;;;2.09;75.57
85560;BME280;76003;49.038;16.594;2024-03-08T00:22:02;99935.94;;;2.36;75.70
85560;BME280;76003;49.038;16.594;2024-03-08T00:24:48;99939.84;;;2.40;75.55
85560;BME280;76003;49.038;16.594;2024-03-08T00:27:31;99893.19;;;2.15;75.27
85560;BME280;76003;49.038;16.594;2024-03-08T00:30:12;99902.28;;;2.20;75.36
85560;BME280;76003;49.038;16.594;2024-03-08T00:32:55;99915.53;;;2.22;75.98
85560;BME280;76003;49.038;16.594;2024-03-08T00:35:34;99920.75;;;2.10;76.03
85560;BME280;76003;49.038;16.594;2024-03-08T00:38:20;99929.09;;;2.02;76.72
85560;BME280;76003;49.038;16.594;2024-03-08T00:41:01;99909.06;;;1.92;76.40
85560;BME280;76003;49.038;16.594;2024-03-08T00:43:29;99918.75;;;1.99;76.62
85560;BME280;76003;49.038;16.594;2024-03-08T00:46:16;99924.56;;;2.03;76.43
85560;BME280;76003;49.038;16.594;2024-03-08T00:48:57;99913.81;;;1.90;77.03
85560;BME280;76003;49.038;16.594;2024-03-08T00:51:38;99864.72;;;1.57;76.45
85560;BME280;76003;49.038;16.594;2024-03-08T00:54:19;99896.53;;;1.73;76.97
85560;BME280;76003;49.038;16.594;2024-03-08T00:56:45;99908.09;;;1.80;77.23
85560;BME280;76003;49.038;16.594;2024-03-08T00:59:32;99916.75;;;1.88;77.43
85560;BME280;76003;49.038;16.594;2024-03-08T01:02:01;99897.91;;;1.82;76.77
85560;BME280;76003;49.038;16.594;2024-03-08T01:05:43;99883.31;;;1.65;77.42
85560;BME280;76003;49.038;16.594;2024-03-08T01:09:09;99883.72;;;1.62;77.55
85560;BME280;76003;49.038;16.594;2024-03-08T01:12:35;99912.25;;;1.76;77.64
85560;BME280;76003;49.038;16.594;2024-03-08T01:16:00;99913.09;;;1.70;77.82
85560;BME280;76003;49.038;16.594;2024-03-08T01:18:26;99889.81;;;1.51;77.92
85560;BME280;76003;49.038;16.594;2024-03-08T01:21:13;99909.59;;;1.69;77.86
85560;BME280;76003;49.038;16.594;2024-03-08T01:23:39;99906.69;;;1.64;78.07
85560;BME280;76003;49.038;16.594;2024-03-08T01:26:25;99820.22;;;1.10;77.72
85560;BME280;76003;49.038;16.594;2024-03-08T01:29:06;99897.00;;;1.57;78.26
85560;BME280;76003;49.038;16.594;2024-03-08T01:31:48;99906.03;;;1.75;77.91
85560;BME280;76003;49.038;16.594;2024-03-08T01:34:28;99887.66;;;1.66;77.80
85560;BME280;76003;49.038;16.594;2024-03-08T01:36:54;99894.25;;;1.76;77.57
85560;BME280;76003;49.038;16.594;2024-03-08T01:39:43;99890.72;;;1.76;77.25
85560;BME280;76003;49.038;16.594;2024-03-08T01:42:24;99902.28;;;1.83;77.74
85560;BME280;76003;49.038;16.594;2024-03-08T01:44:50;99885.94;;;1.78;77.18
85560;BME280;76003;49.038;16.594;2024-03-08T01:47:32;99876.00;;;1.78;76.92
85560;BME280;76003;49.038;16.594;2024-03-08T01:50:13;99897.00;;;2.01;76.63
85560;BME280;76003;49.038;16.594;2024-03-08T01:52:39;99889.97;;;2.00;76.68
85560;BME280;76003;49.038;16.594;2024-03-08T01:55:26;99884.75;;;2.05;76.57
85560;BME280;76003;49.038;16.594;2024-03-08T01:58:06;99875.59;;;2.12;76.46
85560;BME280;76003;49.038;16.594;2024-03-08T02:00:33;99898.25;;;2.29;75.88
85560;BME280;76003;49.038;16.594;2024-03-08T02:03:20;99880.50;;;2.22;75.50
85560;BME280;76003;49.038;16.594;2024-03-08T02:06:01;99872.59;;;2.27;75.13
85560;BME280;76003;49.038;16.594;2024-03-08T02:08:27;99854.59;;;2.21;74.85
85560;BME280;76003;49.038;16.594;2024-03-08T02:11:40;99870.44;;;2.35;74.96
85560;BME280;76003;49.038;16.594;2024-03-08T02:14:06;99849.19;;;2.21;75.06
85560;BME280;76003;49.038;16.594;2024-03-08T02:17:48;99873.38;;;2.34;74.80
85560;BME280;76003;49.038;16.594;2024-03-08T02:20:29;99877.53;;;2.30;75.32
85560;BME280;76003;49.038;16.594;2024-03-08T02:23:10;99889.38;;;2.22;76.31
85560;BME280;76003;49.038;16.594;2024-03-08T02:25:52;99865.06;;;2.04;76.28
85560;BME280;76003;49.038;16.594;2024-03-08T02:28:19;99858.75;;;1.92;75.93
85560;BME280;76003;49.038;16.594;2024-03-08T02:31:05;99870.31;;;1.93;76.19
85560;BME280;76003;49.038;16.594;2024-03-08T02:34:33;99860.00;;;1.83;76.69
85560;BME280;76003;49.038;16.594;2024-03-08T02:38:02;99842.31;;;1.69;76.89
85560;BME280;76003;49.038;16.594;2024-03-08T02:41:28;99854.06;;;1.75;76.97
85560;BME280;76003;49.038;16.594;2024-03-08T02:43:54;99880.09;;;1.87;76.94
85560;BME280;76003;49.038;16.594;2024-03-08T02:46:41;99892.75;;;1.87;77.06
85560;BME280;76003;49.038;16.594;2024-03-08T02:49:07;99876.38;;;1.82;77.21
85560;BME280;76003;49.038;16.594;2024-03-08T02:51:54;99858.78;;;1.79;76.41
85560;BME280;76003;49.038;16.594;2024-03-08T02:54:34;99876.53;;;1.93;76.57
85560;BME280;76003;49.038;16.594;2024-03-08T02:57:16;99855.84;;;1.87;75.90
85560;BME280;76003;49.038;16.594;2024-03-08T02:59:57;99866.59;;;1.94;76.11
85560;BME280;76003;49.038;16.594;2024-03-08T03:02:25;99854.56;;;1.96;76.01
85560;BME280;76003;49.038;16.594;2024-03-08T03:05:12;99867.97;;;2.03;76.35
85560;BME280;76003;49.038;16.594;2024-03-08T03:07:53;99882.25;;;2.03;75.78
85560;BME280;76003;49.038;16.594;2024-03-08T03:10:19;99864.13;;;1.92;76.06
85560;BME280;76003;49.038;16.594;2024-03-08T03:14:01;99884.94;;;2.10;76.37
85560;BME280;76003;49.038;16.594;2024-03-08T03:17:26;99872.09;;;2.05;75.88
85560;BME280;76003;49.038;16.594;2024-03-08T03:20:52;99834.88;;;1.96;75.79
85560;BME280;76003;49.038;16.594;2024-03-08T03:23:48;99863.94;;;2.18;75.82
85560;BME280;76003;49.038;16.594;2024-03-08T03:26:14;99882.47;;;2.33;75.37
85560;BME280;76003;49.038;16.594;2024-03-08T03:29:03;99877.97;;;2.27;75.16
85560;BME280;76003;49.038;16.594;2024-03-08T03:31:31;99858.13;;;2.21;75.02
85560;BME280;76003;49.038;16.594;2024-03-08T03:34:18;99863.22;;;2.29;75.45
85560;BME280;76003;49.038;16.594;2024-03-08T03:36:58;99862.19;;;2.30;74.76
85560;BME280;76003;49.038;16.594;2024-03-08T03:39:39;99852.06;;;2.26;74.70
85560;BME280;76003;49.038;16.594;2024-03-08T03:42:28;99864.72;;;2.25;74.94
85560;BME280;76003;49.038;16.594;2024-03-08T03:44:54;99859.09;;;2.27;75.02
85560;BME280;76003;49.038;16.594;2024-03-08T03:47:42;99825.94;;;2.02;74.52
85560;BME280;76003;49.038;16.594;2024-03-08T03:50:23;99872.94;;;2.37;75.38
85560;BME280;76003;49.038;16.594;2024-03-08T03:53:04;99837.59;;;2.20;75.15
85560;BME280;76003;49.038;16.594;2024-03-08T03:55:48;99866.28;;;2.39;75.03
85560;BME280;76003;49.038;16.594;2024-03-08T03:58:29;99871.59;;;2.46;75.17
85560;BME280;76003;49.038;16.594;2024-03-08T04:00:56;99851.47;;;2.24;75.39
85560;BME280;76003;49.038;16.594;2024-03-08T04:03:43;99857.25;;;2.27;76.22
85560;BME280;76003;49.038;16.594;2024-03-08T04:06:11;99848.16;;;2.22;75.78
85560;BME280;76003;49.038;16.594;2024-03-08T04:08:57;99868.63;;;2.29;75.06
85560;BME280;76003;49.038;16.594;2024-03-08T04:11:38;99864.34;;;2.22;75.20
85560;BME280;76003;49.038;16.594;2024-03-08T04:14:19;99848.97;;;2.22;75.39
85560;BME280;76003;49.038;16.594;2024-03-08T04:16:59;99843.66;;;2.16;75.30
85560;BME280;76003;49.038;16.594;2024-03-08T04:19:40;99848.38;;;2.20;75.46
85560;BME280;76003;49.038;16.594;2024-03-08T04:22:21;99850.88;;;2.22;75.17
85560;BME280;76003;49.038;16.594;2024-03-08T04:25:02;99878.75;;;2.34;75.13
85560;BME280;76003;49.038;16.594;2024-03-08T04:27:28;99824.91;;;2.03;75.38
85560;BME280;76003;49.038;16.594;2024-03-08T04:30:14;99864.06;;;2.30;75.21
85560;BME280;76003;49.038;16.594;2024-03-08T04:32:55;99835.34;;;2.17;75.68
85560;BME280;76003;49.038;16.594;2024-03-08T04:35:36;99861.59;;;2.28;75.17
85560;BME280;76003;49.038;16.594;2024-03-08T04:38:02;99868.03;;;2.27;75.36
85560;BME280;76003;49.038;16.594;2024-03-08T04:40:51;99844.63;;;2.21;75.56
85560;BME280;76003;49.038;16.594;2024-03-08T04:43:17;99857.19;;;2.34;75.38
85560;BME280;76003;49.038;16.594;2024-03-08T04:46:04;99848.59;;;2.19;75.68
85560;BME280;76003;49.038;16.594;2024-03-08T04:48:45;99849.03;;;2.16;75.55
85560;BME280;76003;49.038;16.594;2024-03-08T04:51:26;99867.34;;;2.32;76.00
85560;BME280;76003;49.038;16.594;2024-03-08T04:53:52;99835.78;;;2.14;75.82
85560;BME280;76003;49.038;16.594;2024-03-08T04:57:34;99861.38;;;2.30;75.03
85560;BME280;76003;49.038;16.594;2024-03-08T05:01:00;99858.22;;;2.33;75.24
85560;BME280;76003;49.038;16.594;2024-03-08T05:03:27;99846.84;;;2.31;75.88
85560;BME280;76003;49.038;16.594;2024-03-08T05:06:13;99855.97;;;2.30;75.57
85560;BME280;76003;49.038;16.594;2024-03-08T05:08:54;99852.28;;;2.24;75.76
85560;BME280;76003;49.038;16.594;2024-03-08T05:11:19;99843.38;;;2.24;75.47
85560;BME280;76003;49.038;16.594;2024-03-08T05:13:59;99864.66;;;2.32;75.63
85560;BME280;76003;49.038;16.594;2024-03-08T05:16:40;99840.16;;;2.15;75.29
85560;BME280;76003;49.038;16.594;2024-03-08T05:19:18;99867.28;;;2.38;75.15
85560;BME280;76003;49.038;16.594;2024-03-08T05:22:05;99850.75;;;2.35;75.45
85560;BME280;76003;49.038;16.594;2024-03-08T05:24:31;99844.59;;;2.28;75.52
85560;BME280;76003;49.038;16.594;2024-03-08T05:28:13;99863.19;;;2.36;74.96
85560;BME280;76003;49.038;16.594;2024-03-08T05:30:53;99864.59;;;2.38;75.57
85560;BME280;76003;49.038;16.594;2024-03-08T05:33:37;99831.59;;;2.18;75.60
85560;BME280;76003;49.038;16.594;2024-03-08T05:36:03;99840.09;;;2.22;75.46
85560;BME280;76003;49.038;16.594;2024-03-08T05:38:49;99845.63;;;2.27;75.55
85560;BME280;76003;49.038;16.594;2024-03-08T05:41:16;99872.47;;;2.40;75.13
85560;BME280;76003;49.038;16.594;2024-03-08T05:44:20;99861.97;;;2.32;75.50
85560;BME280;76003;49.038;16.594;2024-03-08T05:47:00;99858.06;;;2.28;75.11
85560;BME280;76003;49.038;16.594;2024-03-08T05:49:26;99868.41;;;2.31;74.96
85560;BME280;76003;49.038;16.594;2024-03-08T05:53:07;99876.59;;;2.42;75.58
85560;BME280;76003;49.038;16.594;2024-03-08T05:55:33;99857.63;;;2.31;75.44
85560;BME280;76003;49.038;16.594;2024-03-08T05:58:38;99849.81;;;2.23;75.51
85560;BME280;76003;49.038;16.594;2024-03-08T06:01:04;99853.09;;;2.25;75.69
85560;BME280;76003;49.038;16.594;2024-03-08T06:04:49;99875.78;;;2.42;75.56
85560;BME280;76003;49.038;16.594;2024-03-08T06:08:15;99844.53;;;2.10;75.91
85560;BME280;76003;49.038;16.594;2024-03-08T06:10:46;99870.00;;;2.38;75.89
85560;BME280;76003;49.038;16.594;2024-03-08T06:13:51;99850.09;;;2.15;75.83
85560;BME280;76003;49.038;16.594;2024-03-08T06:16:16;99835.66;;;2.03;75.82
85560;BME280;76003;49.038;16.594;2024-03-08T06:19:03;99878.41;;;2.24;75.72
85560;BME280;76003;49.038;16.594;2024-03-08T06:21:43;99848.59;;;2.19;75.68
85560;BME280;76003;49.038;16.594;2024-03-08T06:24:24;99883.09;;;2.35;75.79
85560;BME280;76003;49.038;16.594;2024-03-08T06:27:04;99863.88;;;2.25;76.01
85560;BME280;76003;49.038;16.594;2024-03-08T06:29:45;99867.41;;;2.25;76.14
85560;BME280;76003;49.038;16.594;2024-03-08T06:32:11;99867.41;;;2.25;76.01
85560;BME280;76003;49.038;16.594;2024-03-08T06:34:57;99859.97;;;2.21;76.39
85560;BME280;76003;49.038;16.594;2024-03-08T06:37:38;99858.66;;;2.05;76.62
85560;BME280;76003;49.038;16.594;2024-03-08T06:40:19;99894.50;;;2.37;76.28
85560;BME280;76003;49.038;16.594;2024-03-08T06:43:00;99901.13;;;2.34;76.18
85560;BME280;76003;49.038;16.594;2024-03-08T06:45:28;99882.16;;;2.23;76.73
85560;BME280;76003;49.038;16.594;2024-03-08T06:48:16;99887.97;;;2.20;76.33
85560;BME280;76003;49.038;16.594;2024-03-08T06:50:57;99899.47;;;2.33;76.44
85560;BME280;76003;49.038;16.594;2024-03-08T06:53:23;99899.69;;;2.32;76.74
85560;BME280;76003;49.038;16.594;2024-03-08T06:56:11;99879.09;;;2.13;76.47
85560;BME280;76003;49.038;16.594;2024-03-08T06:59:01;99899.63;;;2.38;76.33
85560;BME280;76003;49.038;16.594;2024-03-08T07:01:43;99893.75;;;2.23;76.42
85560;BME280;76003;49.038;16.594;2024-03-08T07:04:24;99906.50;;;2.41;76.19
85560;BME280;76003;49.038;16.594;2024-03-08T07:06:53;99881.72;;;2.26;76.04
85560;BME280;76003;49.038;16.594;2024-03-08T07:09:39;99875.91;;;2.22;76.22
85560;BME280;76003;49.038;16.594;2024-03-08T07:12:20;99885.78;;;2.35;76.62
85560;BME280;76003;49.038;16.594;2024-03-08T07:14:46;99890.47;;;2.46;76.20
85560;BME280;76003;49.038;16.594;2024-03-08T07:18:28;99894.25;;;2.38;75.58
85560;BME280;76003;49.038;16.594;2024-03-08T07:20:55;99887.66;;;2.34;75.96
85560;BME280;76003;49.038;16.594;2024-03-08T07:23:41;99878.31;;;2.37;75.60
85560;BME280;76003;49.038;16.594;2024-03-08T07:27:25;99873.78;;;2.31;76.09
85560;BME280;76003;49.038;16.594;2024-03-08T07:29:51;99875.88;;;2.53;75.88
85560;BME280;76003;49.038;16.594;2024-03-08T07:32:38;99901.56;;;2.56;75.73
85560;BME280;76003;49.038;16.594;2024-03-08T07:35:04;99860.22;;;2.44;75.88
85560;BME280;76003;49.038;16.594;2024-03-08T07:37:29;99896.38;;;2.61;75.47
85560;BME280;76003;49.038;16.594;2024-03-08T07:39:55;99879.00;;;2.50;76.01
85560;BME280;76003;49.038;16.594;2024-03-08T07:42:22;99880.84;;;2.56;75.65
85560;BME280;76003;49.038;16.594;2024-03-08T07:45:09;99891.06;;;2.72;75.38
85560;BME280;76003;49.038;16.594;2024-03-08T07:47:35;99891.56;;;2.63;75.58
85560;BME280;76003;49.038;16.594;2024-03-08T07:50:17;99877.97;;;2.76;75.41
85560;BME280;76003;49.038;16.594;2024-03-08T07:52:42;99895.47;;;2.67;75.76
85560;BME280;76003;49.038;16.594;2024-03-08T07:55:08;99857.56;;;2.62;75.36
85560;BME280;76003;49.038;16.594;2024-03-08T07:57:50;99863.53;;;2.70;75.04
85560;BME280;76003;49.038;16.594;2024-03-08T08:00:31;99902.53;;;3.10;75.19
85560;BME280;76003;49.038;16.594;2024-03-08T08:02:57;99900.66;;;3.11;74.69
85560;BME280;76003;49.038;16.594;2024-03-08T08:05:44;99873.16;;;3.02;74.57
85560;BME280;76003;49.038;16.594;2024-03-08T08:08:10;99856.38;;;2.76;74.82
85560;BME280;76003;49.038;16.594;2024-03-08T08:10:56;99857.63;;;2.80;74.96
85560;BME280;76003;49.038;16.594;2024-03-08T08:13:37;99851.41;;;2.97;74.83
85560;BME280;76003;49.038;16.594;2024-03-08T08:16:17;99855.94;;;2.79;75.10
85560;BME280;76003;49.038;16.594;2024-03-08T08:18:43;99877.03;;;2.88;75.36
85560;BME280;76003;49.038;16.594;2024-03-08T08:21:32;99879.97;;;3.05;74.92
85560;BME280;76003;49.038;16.594;2024-03-08T08:24:12;99863.31;;;2.90;74.96
85560;BME280;76003;49.038;16.594;2024-03-08T08:26:38;99879.44;;;2.96;74.79
85560;BME280;76003;49.038;16.594;2024-03-08T08:30:20;99889.31;;;2.84;75.28
85560;BME280;76003;49.038;16.594;2024-03-08T08:33:45;99872.69;;;2.87;74.94
85560;BME280;76003;49.038;16.594;2024-03-08T08:37:13;99875.81;;;2.84;75.26
85560;BME280;76003;49.038;16.594;2024-03-08T08:40:38;99899.72;;;2.99;75.19
85560;BME280;76003;49.038;16.594;2024-03-08T08:43:04;99871.41;;;2.90;74.93
85560;BME280;76003;49.038;16.594;2024-03-08T08:45:51;99894.31;;;3.05;75.16
85560;BME280;76003;49.038;16.594;2024-03-08T08:48:20;99886.13;;;3.12;74.96
85560;BME280;76003;49.038;16.594;2024-03-08T08:51:22;99889.50;;;3.07;74.79
85560;BME280;76003;49.038;16.594;2024-03-08T08:54:03;99875.00;;;3.02;75.37
85560;BME280;76003;49.038;16.594;2024-03-08T08:56:29;99877.78;;;2.95;75.43
85560;BME280;76003;49.038;16.594;2024-03-08T08:59:58;99888.91;;;3.05;74.94
85560;BME280;76003;49.038;16.594;2024-03-08T09:02:26;99867.53;;;3.04;75.02
85560;BME280;76003;49.038;16.594;2024-03-08T09:05:29;99895.44;;;3.16;75.24
85560;BME280;76003;49.038;16.594;2024-03-08T09:08:10;99890.53;;;3.24;74.92
85560;BME280;76003;49.038;16.594;2024-03-08T09:10:50;99864.69;;;3.17;74.98
85560;BME280;76003;49.038;16.594;2024-03-08T09:13:31;99907.28;;;3.33;74.88
85560;BME280;76003;49.038;16.594;2024-03-08T09:16:14;99875.31;;;3.30;74.78
85560;BME280;76003;49.038;16.594;2024-03-08T09:18:40;99898.50;;;3.37;74.81
85560;BME280;76003;49.038;16.594;2024-03-08T09:21:27;99889.59;;;3.37;75.01
85560;BME280;76003;49.038;16.594;2024-03-08T09:24:53;99877.38;;;3.34;74.67
85560;BME280;76003;49.038;16.594;2024-03-08T09:28:18;99894.06;;;3.61;74.60
85560;BME280;76003;49.038;16.594;2024-03-08T09:30:45;99872.56;;;3.36;74.34
85560;BME280;76003;49.038;16.594;2024-03-08T09:33:32;99897.47;;;3.38;74.78
85560;BME280;76003;49.038;16.594;2024-03-08T09:36:08;99901.88;;;3.51;74.79
85560;BME280;76003;49.038;16.594;2024-03-08T09:39:50;99885.53;;;3.46;74.96
85560;BME280;76003;49.038;16.594;2024-03-08T09:42:31;99891.81;;;3.58;74.90
85560;BME280;76003;49.038;16.594;2024-03-08T09:45:01;99889.94;;;3.40;74.77
85560;BME280;76003;49.038;16.594;2024-03-08T09:48:04;99879.16;;;3.40;74.83
85560;BME280;76003;49.038;16.594;2024-03-08T09:51:33;99889.66;;;3.48;75.36
85560;BME280;76003;49.038;16.594;2024-03-08T09:53:59;99882.31;;;3.37;75.46
85560;BME280;76003;49.038;16.594;2024-03-08T09:56:46;99806.97;;;3.18;75.26
85560;BME280;76003;49.038;16.594;2024-03-08T09:59:27;99876.53;;;3.52;75.37
85560;BME280;76003;49.038;16.594;2024-03-08T10:02:11;99889.53;;;3.73;74.84
85560;BME280;76003;49.038;16.594;2024-03-08T10:04:39;99881.13;;;3.81;73.93
85560;BME280;76003;49.038;16.594;2024-03-08T10:08:23;99851.09;;;3.59;73.99
85560;BME280;76003;49.038;16.594;2024-03-08T10:11:04;99875.59;;;3.76;73.94
85560;BME280;76003;49.038;16.594;2024-03-08T10:13:30;99885.28;;;3.65;74.02
85560;BME280;76003;49.038;16.594;2024-03-08T10:16:17;99877.72;;;3.74;74.17
85560;BME280;76003;49.038;16.594;2024-03-08T10:18:59;99855.50;;;3.72;74.30
85560;BME280;76003;49.038;16.594;2024-03-08T10:21:26;99844.25;;;3.57;74.53
85560;BME280;76003;49.038;16.594;2024-03-08T10:24:13;99876.16;;;3.96;74.38
85560;BME280;76003;49.038;16.594;2024-03-08T10:26:38;99868.91;;;4.08;74.14
85560;BME280;76003;49.038;16.594;2024-03-08T10:29:05;99882.63;;;4.36;73.98
85560;BME280;76003;49.038;16.594;2024-03-08T10:31:51;99863.31;;;4.21;74.23
85560;BME280;76003;49.038;16.594;2024-03-08T10:34:32;99847.72;;;4.34;73.41
85560;BME280;76003;49.038;16.594;2024-03-08T10:37:04;99870.72;;;4.25;74.39
85560;BME280;76003;49.038;16.594;2024-03-08T10:39:35;99864.50;;;4.25;73.93
85560;BME280;76003;49.038;16.594;2024-03-08T10:43:24;99881.69;;;4.30;73.66
85560;BME280;76003;49.038;16.594;2024-03-08T10:47:02;99861.13;;;4.41;73.34
85560;BME280;76003;49.038;16.594;2024-03-08T10:49:37;99878.03;;;4.36;73.30
85560;BME280;76003;49.038;16.594;2024-03-08T10:52:41;99858.53;;;4.46;72.80
85560;BME280;76003;49.038;16.594;2024-03-08T10:55:22;99838.09;;;4.50;72.69
85560;BME280;76003;49.038;16.594;2024-03-08T10:57:52;99856.09;;;4.79;72.16
85560;BME280;76003;49.038;16.594;2024-03-08T11:00:39;99834.94;;;4.53;72.27
85560;BME280;76003;49.038;16.594;2024-03-08T11:06:14;99806.34;;;4.57;71.68
85560;BME280;76003;49.038;16.594;2024-03-08T11:09:01;99866.44;;;4.59;71.96
85560;BME280;76003;49.038;16.594;2024-03-08T11:11:41;99846.34;;;4.78;72.14
85560;BME280;76003;49.038;16.594;2024-03-08T11:14:45;99863.88;;;4.87;72.05
85560;BME280;76003;49.038;16.594;2024-03-08T11:21:04;99832.81;;;4.90;71.78
85560;BME280;76003;49.038;16.594;2024-03-08T11:24:22;99782.22;;;4.67;71.45
85560;BME280;76003;49.038;16.594;2024-03-08T11:26:49;99847.75;;;5.04;71.35
85560;BME280;76003;49.038;16.594;2024-03-08T11:29:36;99820.69;;;4.92;71.84
85560;BME280;76003;49.038;16.594;2024-03-08T11:32:09;99855.63;;;5.17;71.73
85560;BME280;76003;49.038;16.594;2024-03-08T11:34:36;99832.22;;;5.11;71.72
85560;BME280;76003;49.038;16.594;2024-03-08T11:37:12;99841.84;;;5.30;71.15
85560;BME280;76003;49.038;16.594;2024-03-08T11:39:40;99838.31;;;5.18;71.56
85560;BME280;76003;49.038;16.594;2024-03-08T11:42:27;99811.50;;;4.93;71.95
85560;BME280;76003;49.038;16.594;2024-03-08T11:44:53;99825.50;;;5.13;71.29
85560;BME280;76003;49.038;16.594;2024-03-08T11:47:42;99817.94;;;5.27;71.72
85560;BME280;76003;49.038;16.594;2024-03-08T11:50:11;99820.63;;;5.27;70.85
85560;BME280;76003;49.038;16.594;2024-03-08T11:52:37;99806.78;;;5.12;71.11
85560;BME280;76003;49.038;16.594;2024-03-08T11:55:03;99821.09;;;5.24;71.11
85560;BME280;76003;49.038;16.594;2024-03-08T11:57:30;99816.63;;;5.41;71.06
85560;BME280;76003;49.038;16.594;2024-03-08T12:00:16;99799.66;;;5.34;70.52
85560;BME280;76003;49.038;16.594;2024-03-08T12:03:03;99789.81;;;5.16;71.47
85560;BME280;76003;49.038;16.594;2024-03-08T12:05:57;99798.75;;;5.28;70.65
85560;BME280;76003;49.038;16.594;2024-03-08T12:08:25;99809.06;;;5.43;70.98
85560;BME280;76003;49.038;16.594;2024-03-08T12:11:09;99786.53;;;5.14;71.10
85560;BME280;76003;49.038;16.594;2024-03-08T12:13:35;99781.91;;;5.26;70.95
85560;BME280;76003;49.038;16.594;2024-03-08T12:16:04;99800.78;;;5.49;70.40
85560;BME280;76003;49.038;16.594;2024-03-08T12:18:34;99789.34;;;5.19;70.47
85560;BME280;76003;49.038;16.594;2024-03-08T12:21:07;99768.41;;;5.15;71.25
85560;BME280;76003;49.038;16.594;2024-03-08T12:26:30;99791.50;;;5.45;71.14
85560;BME280;76003;49.038;16.594;2024-03-08T12:29:26;99792.56;;;5.44;70.16
85560;BME280;76003;49.038;16.594;2024-03-08T12:31:54;99796.44;;;5.48;70.33
85560;BME280;76003;49.038;16.594;2024-03-08T12:34:20;99785.50;;;5.71;69.45
85560;BME280;76003;49.038;16.594;2024-03-08T12:36:50;99791.50;;;5.73;69.75
85560;BME280;76003;49.038;16.594;2024-03-08T12:39:20;99766.88;;;5.86;69.44
85560;BME280;76003;49.038;16.594;2024-03-08T12:43:09;99762.25;;;5.87;68.52
85560;BME280;76003;49.038;16.594;2024-03-08T12:45:35;99765.22;;;5.85;68.82
85560;BME280;76003;49.038;16.594;2024-03-08T12:48:38;99774.25;;;5.91;69.99
85560;BME280;76003;49.038;16.594;2024-03-08T12:52:10;99765.22;;;6.02;68.86
85560;BME280;76003;49.038;16.594;2024-03-08T12:55:35;99778.78;;;5.85;69.66
85560;BME280;76003;49.038;16.594;2024-03-08T12:58:01;99771.94;;;5.83;69.35
85560;BME280;76003;49.038;16.594;2024-03-08T13:01:04;99745.34;;;5.96;69.21
85560;BME280;76003;49.038;16.594;2024-03-08T13:03:47;99768.69;;;5.97;69.50
85560;BME280;76003;49.038;16.594;2024-03-08T13:06:30;99753.91;;;6.05;68.80
85560;BME280;76003;49.038;16.594;2024-03-08T13:08:57;99756.94;;;6.08;69.43
85560;BME280;76003;49.038;16.594;2024-03-08T13:11:44;99737.06;;;6.03;69.96
85560;BME280;76003;49.038;16.594;2024-03-08T13:14:10;99748.47;;;6.05;69.51
85560;BME280;76003;49.038;16.594;2024-03-08T13:17:14;99731.22;;;6.27;67.63
85560;BME280;76003;49.038;16.594;2024-03-08T13:19:54;99733.75;;;6.50;67.78
85560;BME280;76003;49.038;16.594;2024-03-08T13:22:23;99737.66;;;6.59;67.26
85560;BME280;76003;49.038;16.594;2024-03-08T13:25:27;99747.09;;;6.73;66.87
85560;BME280;76003;49.038;16.594;2024-03-08T13:28:53;99742.59;;;6.62;68.33
85560;BME280;76003;49.038;16.594;2024-03-08T13:32:18;99738.53;;;6.81;67.05
85560;BME280;76003;49.038;16.594;2024-03-08T13:34:46;99734.31;;;6.90;66.72
85560;BME280;76003;49.038;16.594;2024-03-08T13:37:33;99753.59;;;7.10;66.94
85560;BME280;76003;49.038;16.594;2024-03-08T13:39:59;99727.56;;;7.14;65.64
85560;BME280;76003;49.038;16.594;2024-03-08T13:42:40;99750.06;;;7.10;65.85
85560;BME280;76003;49.038;16.594;2024-03-08T13:45:09;99736.84;;;6.97;66.71
85560;BME280;76003;49.038;16.594;2024-03-08T13:48:17;99750.44;;;7.40;65.94
85560;BME280;76003;49.038;16.594;2024-03-08T13:50:43;99716.94;;;6.70;67.60
85560;BME280;76003;49.038;16.594;2024-03-08T13:53:46;99749.22;;;7.31;67.29
85560;BME280;76003;49.038;16.594;2024-03-08T13:56:28;99728.81;;;7.28;66.90
85560;BME280;76003;49.038;16.594;2024-03-08T13:58:56;99733.00;;;7.36;66.26
85560;BME280;76003;49.038;16.594;2024-03-08T14:01:43;99713.09;;;7.30;66.53
85560;BME280;76003;49.038;16.594;2024-03-08T14:05:09;99733.84;;;7.41;66.68
85560;BME280;76003;49.038;16.594;2024-03-08T14:08:36;99723.97;;;7.30;66.37
85560;BME280;76003;49.038;16.594;2024-03-08T14:11:06;99730.63;;;7.44;66.53
85560;BME280;76003;49.038;16.594;2024-03-08T14:13:59;99699.44;;;7.25;66.72
85560;BME280;76003;49.038;16.594;2024-03-08T14:16:24;99655.66;;;6.95;67.11
85560;BME280;76003;49.038;16.594;2024-03-08T14:18:50;99709.13;;;7.16;67.48
85560;BME280;76003;49.038;16.594;2024-03-08T14:21:30;99701.66;;;6.85;68.21
85560;BME280;76003;49.038;16.594;2024-03-08T14:24:10;99699.97;;;6.79;68.72
85560;BME280;76003;49.038;16.594;2024-03-08T14:26:36;99705.13;;;6.81;68.62
85560;BME280;76003;49.038;16.594;2024-03-08T14:29:25;99704.38;;;6.85;68.71
85560;BME280;76003;49.038;16.594;2024-03-08T14:32:09;99691.63;;;6.64;69.64
85560;BME280;76003;49.038;16.594;2024-03-08T14:34:36;99705.97;;;6.81;69.79
85560;BME280;76003;49.038;16.594;2024-03-08T14:37:22;99676.28;;;6.75;69.72
85560;BME280;76003;49.038;16.594;2024-03-08T14:40:08;99693.34;;;6.92;69.96
85560;BME280;76003;49.038;16.594;2024-03-08T14:42:34;99691.06;;;6.84;69.89